Time;durP1;ratioP1;P1;durP2;ratioP2;P2;SDS_P1;SDS_P2;PMS_P1;PMS_P2;Temp;Humidity;BMP_temperature;BMP_pressure;BME280_temperature;BME280_humidity;BME280_pressure;Samples;Min_cycle;Max_cycle;Signal;HPM_P1;HPM_P2
2022/12/11 00:02:19;;;;;;;22.40;12.65;;;-3.20;67.50;;;;;;5034339;28;20438;-68
2022/12/11 00:04:44;;;;;;;19.37;12.73;;;-3.10;66.90;;;;;;5042456;28;20206;-70
2022/12/11 00:07:10;;;;;;;23.00;13.17;;;-3.10;65.00;;;;;;5054466;28;20394;-68
2022/12/11 00:09:36;;;;;;;20.45;13.55;;;-3.00;67.40;;;;;;5054346;28;20527;-68
2022/12/11 00:12:04;;;;;;;18.77;11.63;;;-2.90;71.70;;;;;;5054282;28;20179;-68
2022/12/11 00:14:30;;;;;;;22.65;12.43;;;-2.90;68.60;;;;;;5052896;28;20989;-70
2022/12/11 00:16:56;;;;;;;27.05;12.75;;;-2.90;71.60;;;;;;5052681;28;20670;-70
2022/12/11 00:19:22;;;;;;;27.23;14.13;;;-2.90;85.40;;;;;;5053825;28;20202;-68
2022/12/11 00:21:48;;;;;;;22.60;13.20;;;-2.80;84.90;;;;;;5054288;28;20484;-68
2022/12/11 00:24:13;;;;;;;22.50;12.27;;;-2.80;85.60;;;;;;5053384;28;20183;-70
2022/12/11 00:26:39;;;;;;;22.43;13.93;;;-2.70;85.80;;;;;;5051690;28;20170;-68
2022/12/11 00:29:07;;;;;;;22.20;12.43;;;-2.60;85.80;;;;;;5050896;28;20248;-70
2022/12/11 00:31:33;;;;;;;19.67;12.82;;;-2.60;85.90;;;;;;5053078;28;20189;-68
2022/12/11 00:34:01;;;;;;;22.70;13.77;;;-2.60;85.60;;;;;;5053734;28;20704;-68
2022/12/11 00:36:27;;;;;;;28.25;14.40;;;-2.50;85.90;;;;;;5052702;28;20421;-70
2022/12/11 00:38:53;;;;;;;22.27;13.13;;;-2.50;85.90;;;;;;5053427;28;20273;-68
2022/12/11 00:41:19;;;;;;;27.20;13.27;;;-2.70;83.90;;;;;;5052631;28;20233;-68
2022/12/11 00:43:45;;;;;;;25.92;14.02;;;-2.70;85.70;;;;;;5053059;28;20179;-70
2022/12/11 00:46:11;;;;;;;23.08;14.60;;;-2.70;85.70;;;;;;5052583;28;20190;-69
2022/12/11 00:48:37;;;;;;;23.40;12.82;;;-2.60;85.80;;;;;;5053351;28;20228;-69
2022/12/11 00:51:03;;;;;;;22.77;12.70;;;-2.60;85.80;;;;;;5053422;28;20558;-68
2022/12/11 00:53:29;;;;;;;27.83;12.50;;;-2.70;85.70;;;;;;5053082;28;20417;-69
2022/12/11 00:55:55;;;;;;;27.97;14.40;;;-2.70;85.70;;;;;;5051577;28;20216;-68
2022/12/11 00:58:21;;;;;;;26.87;13.33;;;-2.70;85.70;;;;;;5053200;28;20534;-68
2022/12/11 01:00:48;;;;;;;18.88;11.93;;;-2.70;85.70;;;;;;5053434;28;20675;-68
2022/12/11 01:03:15;;;;;;;20.02;12.57;;;-2.70;85.80;;;;;;5052960;28;20190;-70
2022/12/11 01:05:41;;;;;;;19.88;12.90;;;-2.70;85.80;;;;;;5052277;28;20210;-70
2022/12/11 01:08:07;;;;;;;29.67;14.10;;;-2.70;85.80;;;;;;5051759;28;20171;-68
2022/12/11 01:10:33;;;;;;;26.08;14.80;;;-2.70;85.90;;;;;;5053373;28;20480;-68
2022/12/11 01:13:01;;;;;;;20.47;11.90;;;-2.60;85.80;;;;;;5068578;28;20623;-70
2022/12/11 01:15:30;;;;;;;25.00;13.15;;;-2.60;85.80;;;;;;5052220;28;20611;-68
2022/12/11 01:17:56;;;;;;;20.67;10.40;;;-2.50;85.90;;;;;;5053005;28;20174;-70
2022/12/11 01:20:24;;;;;;;20.38;11.40;;;-2.50;85.80;;;;;;5053583;28;20170;-68
2022/12/11 01:22:55;;;;;;;17.77;11.80;;;-2.50;85.90;;;;;;5053279;28;20209;-69
2022/12/11 01:25:21;;;;;;;20.00;12.55;;;-2.40;86.00;;;;;;5067517;28;20555;-69
2022/12/11 01:27:48;;;;;;;29.27;13.20;;;-2.40;86.00;;;;;;5053125;28;20167;-67
2022/12/11 01:30:14;;;;;;;20.50;11.20;;;-2.40;87.30;;;;;;5052845;28;20445;-70
2022/12/11 01:32:40;;;;;;;24.40;12.63;;;-2.40;92.80;;;;;;5053170;28;20225;-69
2022/12/11 01:35:07;;;;;;;19.40;11.47;;;-2.40;92.00;;;;;;5051858;28;20198;-69
2022/12/11 01:37:33;;;;;;;19.58;12.60;;;-2.40;91.30;;;;;;5053003;28;20179;-68
2022/12/11 01:40:05;;;;;;;28.98;12.65;;;-2.30;93.90;;;;;;5052811;28;20175;-70
2022/12/11 01:42:31;;;;;;;23.65;13.63;;;-2.20;93.80;;;;;;5053749;28;20277;-68
2022/12/11 01:45:25;;;;;;;23.25;11.80;;;-2.30;94.60;;;;;;5071324;28;20203;-68
2022/12/11 01:48:13;;;;;;;20.73;13.07;;;-2.30;94.30;;;;;;5056999;28;20178;-71
2022/12/11 01:50:47;;;;;;;19.73;13.40;;;-2.30;96.60;;;;;;5053949;28;20194;-70
2022/12/11 01:53:20;;;;;;;25.42;14.73;;;-2.20;97.70;;;;;;5056530;28;20220;-70
2022/12/11 01:55:47;;;;;;;28.23;15.00;;;-2.10;99.90;;;;;;5055744;28;20274;-70
2022/12/11 01:58:15;;;;;;;19.50;13.00;;;-2.20;98.20;;;;;;5056405;28;20179;-70
2022/12/11 02:00:40;;;;;;;29.00;12.88;;;-2.20;99.60;;;;;;5056772;28;20642;-69
2022/12/11 02:03:07;;;;;;;26.90;13.83;;;-2.30;98.60;;;;;;5056294;28;20274;-68
2022/12/11 02:05:33;;;;;;;24.38;13.80;;;-2.30;98.90;;;;;;5055428;28;20213;-68
2022/12/11 02:08:01;;;;;;;26.30;13.10;;;-2.30;99.20;;;;;;5056223;28;20171;-69
2022/12/11 02:10:53;;;;;;;28.65;12.70;;;-2.30;99.90;;;;;;5072153;28;20854;-68
2022/12/11 02:13:25;;;;;;;21.55;10.85;;;-2.20;99.90;;;;;;5052366;28;20289;-69
2022/12/11 02:16:20;;;;;;;22.20;14.00;;;-2.20;99.90;;;;;;5055409;28;20189;-68
2022/12/11 02:19:12;;;;;;;20.45;12.23;;;-2.20;99.90;;;;;;5050256;28;20191;-68
2022/12/11 02:21:43;;;;;;;24.45;12.85;;;-2.20;99.90;;;;;;5039858;28;20234;-68
2022/12/11 02:24:36;;;;;;;26.35;12.75;;;-2.20;99.90;;;;;;5035006;28;20192;-69
2022/12/11 02:27:46;;;;;;;18.25;12.32;;;-2.20;99.90;;;;;;5054471;28;20623;-68
2022/12/11 02:30:14;;;;;;;17.42;13.02;;;-2.20;99.90;;;;;;5027537;28;20530;-70
2022/12/11 02:32:55;;;;;;;23.25;13.32;;;-2.10;99.90;;;;;;5056065;28;20301;-68
2022/12/11 02:35:32;;;;;;;21.85;13.38;;;-2.00;99.90;;;;;;5055352;28;20187;-68
2022/12/11 02:38:22;;;;;;;16.67;11.23;;;-2.00;99.90;;;;;;5055726;28;20167;-69
2022/12/11 02:40:50;;;;;;;31.92;15.00;;;-1.90;99.90;;;;;;5056099;28;20179;-68
2022/12/11 02:43:18;;;;;;;22.05;11.40;;;-2.00;99.90;;;;;;5055800;28;20677;-68
2022/12/11 02:45:45;;;;;;;16.98;12.00;;;-2.10;99.90;;;;;;5054792;28;20195;-69
2022/12/11 02:48:14;;;;;;;15.32;12.07;;;-2.10;99.90;;;;;;5055544;28;20173;-68
2022/12/11 02:50:46;;;;;;;22.55;13.05;;;-2.10;99.90;;;;;;5054822;28;20261;-68
2022/12/11 02:53:15;;;;;;;16.55;11.15;;;-2.10;99.90;;;;;;5055417;28;20272;-68
2022/12/11 02:55:42;;;;;;;18.63;12.63;;;-2.10;99.90;;;;;;5052594;28;20207;-69
2022/12/11 02:58:30;;;;;;;18.45;12.73;;;-2.10;99.90;;;;;;5055186;28;20183;-69
2022/12/11 03:00:56;;;;;;;20.42;10.65;;;-2.10;99.90;;;;;;5055647;28;20174;-68
2022/12/11 03:03:22;;;;;;;19.87;11.77;;;-2.00;99.90;;;;;;5055137;28;20198;-69
2022/12/11 03:05:48;;;;;;;19.63;12.43;;;-2.00;99.90;;;;;;5053223;28;20187;-70
2022/12/11 03:08:16;;;;;;;18.30;12.07;;;-2.00;99.90;;;;;;5054962;28;20639;-70
2022/12/11 03:10:43;;;;;;;16.83;12.10;;;-2.00;99.90;;;;;;5055542;28;20159;-69
2022/12/11 03:13:09;;;;;;;17.42;12.73;;;-2.00;99.90;;;;;;5050248;28;20180;-68
2022/12/11 03:16:08;;;;;;;19.48;12.75;;;-2.00;99.90;;;;;;5033404;28;20291;-69
2022/12/11 03:18:43;;;;;;;18.95;12.75;;;-2.00;99.90;;;;;;5048799;28;20191;-70
2022/12/11 03:21:15;;;;;;;32.17;13.13;;;-2.00;99.90;;;;;;5034164;28;20217;-69
2022/12/11 03:24:03;;;;;;;19.40;12.43;;;-1.90;99.90;;;;;;5053371;28;20178;-68
2022/12/11 03:26:34;;;;;;;18.75;11.88;;;-1.90;99.90;;;;;;5053373;28;20528;-70
2022/12/11 03:29:03;;;;;;;21.88;12.18;;;-1.90;99.90;;;;;;5035190;28;20259;-69
2022/12/11 03:31:41;;;;;;;21.75;11.90;;;-1.80;99.90;;;;;;5035279;28;20190;-68
2022/12/11 03:34:22;;;;;;;23.48;12.95;;;-1.80;99.90;;;;;;5034741;28;20194;-73
2022/12/11 03:36:50;;;;;;;23.17;12.65;;;-1.80;99.90;;;;;;5036203;28;20171;-68
2022/12/11 03:39:22;;;;;;;17.58;11.63;;;-1.80;99.90;;;;;;5053685;28;20224;-69
2022/12/11 03:41:50;;;;;;;31.38;13.18;;;-1.80;99.90;;;;;;5054517;28;20556;-70
2022/12/11 03:44:18;;;;;;;25.58;12.55;;;-1.80;99.90;;;;;;5053921;28;20202;-70
2022/12/11 03:46:46;;;;;;;19.05;12.10;;;-1.80;99.90;;;;;;5054699;28;20167;-70
2022/12/11 03:49:25;;;;;;;19.17;12.00;;;-1.80;99.90;;;;;;5053484;28;20179;-70
2022/12/11 03:51:53;;;;;;;18.17;11.05;;;-1.70;99.90;;;;;;5054533;28;20178;-69
2022/12/11 03:54:19;;;;;;;16.48;10.57;;;-1.70;99.90;;;;;;5053429;28;20195;-73
2022/12/11 03:56:47;;;;;;;18.45;12.52;;;-1.70;99.90;;;;;;5054469;28;20167;-68
2022/12/11 03:59:12;;;;;;;17.05;9.85;;;-1.70;99.90;;;;;;5054252;28;20210;-70
2022/12/11 04:01:38;;;;;;;17.93;9.67;;;-1.70;99.90;;;;;;5054440;28;20205;-68
2022/12/11 04:04:04;;;;;;;19.27;11.07;;;-1.90;99.90;;;;;;5053786;28;20187;-70
2022/12/11 04:06:30;;;;;;;22.13;12.73;;;-1.90;99.90;;;;;;5053290;28;20543;-69
2022/12/11 04:08:55;;;;;;;18.60;10.00;;;-2.00;99.90;;;;;;5053909;28;20421;-70
2022/12/11 04:11:33;;;;;;;21.10;11.13;;;-2.10;99.80;;;;;;5053254;28;20190;-68
2022/12/11 04:16:51;;;;;;;23.42;12.57;;;-2.10;99.90;;;;;;5053775;28;20206;-69
2022/12/11 04:24:48;;;;;;;21.45;10.75;;;-2.30;95.20;;;;;;5052890;28;20206;-70
2022/12/11 04:27:47;;;;;;;17.92;10.25;;;-2.30;93.70;;;;;;5053685;28;20167;-69
2022/12/11 04:29:59;;;;;;;14.77;10.10;;;-2.40;92.80;;;;;;5053857;28;20171;-68
2022/12/11 04:32:25;;;;;;;14.70;10.23;;;-2.40;92.00;;;;;;5053673;28;20190;-70
2022/12/11 04:34:50;;;;;;;16.87;10.40;;;-2.50;92.10;;;;;;5052725;28;20198;-70
2022/12/11 04:37:16;;;;;;;18.50;9.80;;;-2.50;86.10;;;;;;5053617;28;20627;-68
2022/12/11 04:39:42;;;;;;;19.23;11.63;;;-2.60;85.80;;;;;;5053998;28;20268;-69
2022/12/11 04:42:07;;;;;;;18.13;10.70;;;-2.60;85.80;;;;;;5048952;28;20199;-69
2022/12/11 04:44:33;;;;;;;15.10;9.80;;;-2.70;85.70;;;;;;5032803;28;20555;-69
2022/12/11 04:46:59;;;;;;;16.53;9.93;;;-2.80;85.60;;;;;;5044652;28;20182;-68
2022/12/11 04:49:24;;;;;;;19.33;9.33;;;-2.90;85.60;;;;;;5053875;28;20234;-69
2022/12/11 04:51:50;;;;;;;16.50;8.87;;;-2.90;85.50;;;;;;5053365;28;20181;-70
2022/12/11 04:54:16;;;;;;;17.77;10.53;;;-2.90;85.60;;;;;;5053315;28;20191;-71
2022/12/11 04:56:42;;;;;;;19.70;10.60;;;-3.00;85.50;;;;;;5052765;28;20472;-68
2022/12/11 04:59:07;;;;;;;21.57;10.30;;;-3.00;85.60;;;;;;5053409;28;20639;-70
2022/12/11 05:01:33;;;;;;;18.47;9.50;;;-3.00;85.50;;;;;;5053225;28;20276;-68
2022/12/11 05:03:59;;;;;;;15.93;9.90;;;-3.00;85.50;;;;;;5053437;28;20194;-69
2022/12/11 05:06:24;;;;;;;15.53;10.43;;;-3.00;85.50;;;;;;5052128;28;20190;-70
2022/12/11 05:08:50;;;;;;;20.23;11.20;;;-3.10;85.40;;;;;;5053341;28;20273;-69
2022/12/11 05:11:16;;;;;;;21.93;12.20;;;-3.10;85.40;;;;;;5051531;28;20171;-70
2022/12/11 05:13:43;;;;;;;15.70;9.70;;;-3.10;85.40;;;;;;5051977;28;20194;-69
2022/12/11 05:16:11;;;;;;;16.67;9.50;;;-3.20;85.40;;;;;;5052094;28;20413;-70
2022/12/11 05:18:37;;;;;;;17.50;10.50;;;-3.20;85.30;;;;;;5052796;28;20159;-68
2022/12/11 05:21:05;;;;;;;19.07;11.57;;;-3.30;84.10;;;;;;5052695;28;20177;-70
2022/12/11 05:23:32;;;;;;;15.10;10.25;;;-3.30;81.20;;;;;;5053050;28;20186;-69
2022/12/11 05:26:00;;;;;;;19.35;9.70;;;-3.40;75.20;;;;;;5051944;28;20266;-68
2022/12/11 05:28:28;;;;;;;20.23;10.73;;;-3.40;72.90;;;;;;5053140;28;20615;-69
2022/12/11 05:30:59;;;;;;;22.15;10.45;;;-3.40;71.40;;;;;;5052864;28;20171;-68
2022/12/11 05:33:25;;;;;;;10.25;6.70;;;-3.40;68.30;;;;;;5051779;28;20652;-70
2022/12/11 05:35:51;;;;;;;20.33;10.95;;;-3.40;68.40;;;;;;5051694;28;20178;-70
2022/12/11 05:38:17;;;;;;;19.85;9.30;;;-3.60;64.40;;;;;;5053013;28;20167;-70
2022/12/11 05:40:43;;;;;;;16.13;9.85;;;-3.60;61.60;;;;;;5052847;28;20254;-70
2022/12/11 05:43:09;;;;;;;17.57;10.00;;;-3.60;59.50;;;;;;5052982;28;20309;-69
2022/12/11 05:45:35;;;;;;;17.87;7.87;;;-3.60;63.00;;;;;;5051601;28;20417;-70
2022/12/11 05:48:01;;;;;;;19.65;11.35;;;-3.60;58.90;;;;;;5053031;28;20224;-70
2022/12/11 05:50:26;;;;;;;15.67;10.00;;;-3.70;54.60;;;;;;5052930;28;20167;-69
2022/12/11 05:52:52;;;;;;;12.80;10.03;;;-3.70;57.80;;;;;;5065089;28;20187;-69
2022/12/11 05:55:18;;;;;;;21.53;10.47;;;-3.70;54.10;;;;;;5032192;28;20191;-70
2022/12/11 05:57:43;;;;;;;17.80;9.83;;;-3.70;54.70;;;;;;5050994;28;20220;-70
2022/12/11 06:00:11;;;;;;;22.63;11.73;;;-3.70;62.20;;;;;;5053000;28;20190;-68
2022/12/11 06:02:37;;;;;;;13.82;9.50;;;-3.80;50.70;;;;;;5052464;28;20203;-70
2022/12/11 06:05:03;;;;;;;15.30;9.93;;;-3.80;50.10;;;;;;5050758;28;20289;-70
2022/12/11 06:07:29;;;;;;;14.55;9.57;;;-3.80;50.80;;;;;;5052496;28;20672;-70
2022/12/11 06:09:54;;;;;;;15.40;9.50;;;-3.80;47.70;;;;;;5052765;28;20159;-70
2022/12/11 06:12:20;;;;;;;17.53;11.33;;;-3.80;49.20;;;;;;5052596;28;20639;-70
2022/12/11 06:14:46;;;;;;;16.80;10.27;;;-3.80;46.00;;;;;;5051915;28;20183;-71
2022/12/11 06:17:11;;;;;;;17.43;9.60;;;-3.80;45.90;;;;;;5050981;28;20178;-69
2022/12/11 06:19:37;;;;;;;16.87;10.03;;;-3.80;46.30;;;;;;5052404;28;20257;-69
2022/12/11 06:22:03;;;;;;;16.90;8.80;;;-4.10;34.40;;;;;;5052593;28;20237;-70
2022/12/11 06:24:29;;;;;;;17.30;9.70;;;-4.20;41.40;;;;;;5051378;28;20286;-70
2022/12/11 06:26:54;;;;;;;19.40;11.40;;;-4.10;45.80;;;;;;5052769;28;20292;-70
2022/12/11 06:29:20;;;;;;;21.67;9.40;;;-4.00;51.10;;;;;;5048341;28;20175;-68
2022/12/11 06:31:46;;;;;;;16.20;9.77;;;-4.00;51.00;;;;;;5035250;28;20582;-70
2022/12/11 06:34:12;;;;;;;11.47;9.07;;;-4.10;48.90;;;;;;5041622;28;20198;-70
2022/12/11 06:36:38;;;;;;;17.08;10.30;;;-4.10;49.50;;;;;;5055520;28;20167;-70
2022/12/11 06:39:04;;;;;;;19.23;11.30;;;-4.10;47.90;;;;;;5054145;28;20167;-69
2022/12/11 06:41:30;;;;;;;14.13;8.77;;;-4.10;47.40;;;;;;5055783;28;20198;-71
2022/12/11 06:43:56;;;;;;;17.00;9.83;;;-4.00;49.50;;;;;;5051206;28;20223;-72
2022/12/11 06:46:21;;;;;;;17.50;10.07;;;-4.10;46.80;;;;;;5034158;28;20171;-72
2022/12/11 06:48:48;;;;;;;15.90;9.40;;;-4.40;29.10;;;;;;5034857;28;20167;-69
2022/12/11 06:51:19;;;;;;;13.65;9.95;;;-4.30;30.70;;;;;;5035829;28;20167;-70
2022/12/11 06:53:49;;;;;;;19.83;9.90;;;-4.30;32.70;;;;;;5042008;28;20222;-70
2022/12/11 06:56:15;;;;;;;16.17;10.18;;;-4.30;37.00;;;;;;5055001;28;20213;-70
2022/12/11 06:58:42;;;;;;;16.00;10.80;;;-4.20;37.50;;;;;;5050742;28;20171;-70
2022/12/11 07:01:20;;;;;;;19.88;11.80;;;-4.20;36.10;;;;;;5035728;28;20155;-69
2022/12/11 07:03:46;;;;;;;24.90;11.18;;;-4.20;38.20;;;;;;5051620;28;20242;-70
2022/12/11 07:06:12;;;;;;;27.10;13.93;;;-4.20;39.90;;;;;;5054026;28;20183;-70
2022/12/11 07:08:38;;;;;;;18.27;12.32;;;-4.10;40.30;;;;;;5070494;28;20181;-69
2022/12/11 07:11:09;;;;;;;24.90;12.90;;;-4.10;40.70;;;;;;5055544;28;20167;-69
2022/12/11 07:13:35;;;;;;;23.67;12.55;;;-4.10;36.90;;;;;;5055032;28;20770;-69
2022/12/11 07:16:04;;;;;;;25.33;11.23;;;-4.10;40.00;;;;;;5054394;28;20155;-70
2022/12/11 07:18:33;;;;;;;20.67;12.20;;;-4.10;41.90;;;;;;5055034;28;20190;-70
2022/12/11 07:20:59;;;;;;;19.65;11.50;;;-4.10;39.50;;;;;;5055180;28;20520;-70
2022/12/11 07:23:27;;;;;;;21.48;12.02;;;-4.10;38.20;;;;;;5054991;28;20199;-69
2022/12/11 07:25:53;;;;;;;19.80;11.45;;;-4.10;39.80;;;;;;5054343;28;20194;-71
2022/12/11 07:28:18;;;;;;;32.72;13.15;;;-4.10;37.00;;;;;;5054669;28;20171;-69
2022/12/11 07:30:44;;;;;;;28.83;13.23;;;-4.10;35.50;;;;;;5055069;28;20174;-69
2022/12/11 07:33:10;;;;;;;25.13;15.43;;;-4.10;36.80;;;;;;5053829;28;20177;-69
2022/12/11 07:35:36;;;;;;;29.07;14.40;;;-4.10;35.80;;;;;;5053818;28;20202;-69
2022/12/11 07:38:01;;;;;;;23.55;14.40;;;-4.10;37.00;;;;;;5054943;28;20174;-70
2022/12/11 07:40:27;;;;;;;31.83;13.07;;;-4.10;37.10;;;;;;5054154;28;20171;-70
2022/12/11 07:42:53;;;;;;;23.37;14.07;;;-4.10;33.60;;;;;;5053637;28;20305;-70
2022/12/11 07:45:19;;;;;;;29.70;12.97;;;-4.10;34.70;;;;;;5053693;28;20182;-69
2022/12/11 07:47:44;;;;;;;22.03;13.27;;;-4.10;33.70;;;;;;5053640;28;20240;-70
2022/12/11 07:50:10;;;;;;;21.50;11.07;;;-4.10;35.20;;;;;;5054243;28;20515;-69
2022/12/11 07:52:35;;;;;;;24.63;12.57;;;-4.10;34.30;;;;;;5054504;28;20178;-69
2022/12/11 07:55:01;;;;;;;30.13;12.17;;;-4.10;35.10;;;;;;5053246;28;20717;-68
2022/12/11 07:57:28;;;;;;;27.43;14.40;;;-4.10;32.40;;;;;;5054516;28;20232;-70
2022/12/11 07:59:54;;;;;;;26.40;11.98;;;-4.10;35.80;;;;;;5049596;28;20179;-69
2022/12/11 08:02:20;;;;;;;19.85;10.85;;;-4.00;33.60;;;;;;5034329;28;20225;-70
2022/12/11 08:04:46;;;;;;;25.27;12.20;;;-4.00;40.60;;;;;;5049991;28;20183;-70
2022/12/11 08:07:12;;;;;;;19.63;12.97;;;-3.90;37.90;;;;;;5054412;28;20178;-70
2022/12/11 08:09:39;;;;;;;20.55;12.27;;;-3.90;41.60;;;;;;5053850;28;20444;-69
2022/12/11 08:12:05;;;;;;;20.67;11.33;;;-3.90;43.40;;;;;;5054095;28;20171;-70
2022/12/11 08:14:31;;;;;;;21.30;12.27;;;-3.80;47.20;;;;;;5037896;28;20238;-70
2022/12/11 08:16:58;;;;;;;24.43;13.83;;;-3.80;50.10;;;;;;5034418;28;20172;-69
2022/12/11 08:19:24;;;;;;;29.60;14.65;;;-3.80;53.30;;;;;;5034456;28;20251;-70
2022/12/11 08:21:50;;;;;;;27.03;14.87;;;-3.80;52.00;;;;;;5034141;28;20274;-69
2022/12/11 08:24:19;;;;;;;32.27;16.20;;;-3.70;55.60;;;;;;5033766;28;20480;-70
2022/12/11 08:26:46;;;;;;;18.40;11.90;;;-3.70;52.00;;;;;;5033908;28;20214;-70
2022/12/11 08:29:12;;;;;;;27.70;13.45;;;-3.70;58.20;;;;;;5033954;28;20183;-70
2022/12/11 08:31:39;;;;;;;21.50;13.27;;;-3.60;62.70;;;;;;5034014;28;20571;-70
2022/12/11 08:34:05;;;;;;;29.40;12.82;;;-3.60;65.00;;;;;;5032486;28;20192;-70
2022/12/11 08:36:31;;;;;;;18.00;11.90;;;-3.50;68.00;;;;;;5033417;28;20174;-70
2022/12/11 08:38:57;;;;;;;22.55;13.55;;;-3.50;69.80;;;;;;5033985;28;20262;-70
2022/12/11 08:41:26;;;;;;;24.05;13.15;;;-3.50;70.20;;;;;;5033810;28;20164;-70
2022/12/11 08:43:53;;;;;;;21.85;12.20;;;-3.40;74.00;;;;;;5033752;28;20192;-70
2022/12/11 08:46:24;;;;;;;24.00;13.90;;;-3.40;72.70;;;;;;5033268;28;20191;-69
2022/12/11 08:48:49;;;;;;;17.70;10.27;;;-3.40;76.90;;;;;;5033727;28;20171;-69
2022/12/11 08:51:18;;;;;;;20.33;11.60;;;-3.40;76.30;;;;;;5033697;28;20167;-69
2022/12/11 08:53:44;;;;;;;18.08;11.65;;;-3.40;77.80;;;;;;5032976;28;20183;-70
2022/12/11 08:56:15;;;;;;;17.87;11.50;;;-3.30;85.10;;;;;;5033061;28;20175;-69
2022/12/11 08:58:42;;;;;;;26.08;13.32;;;-3.30;82.90;;;;;;5032586;28;20167;-70
2022/12/11 09:01:11;;;;;;;23.00;11.73;;;-3.20;85.30;;;;;;5033475;28;20160;-69
2022/12/11 09:03:38;;;;;;;21.70;12.88;;;-3.20;85.40;;;;;;5032105;28;20207;-70
2022/12/11 09:06:09;;;;;;;20.10;12.55;;;-3.20;86.10;;;;;;5031466;28;20640;-70
2022/12/11 09:08:35;;;;;;;29.60;14.90;;;-3.10;85.40;;;;;;5033414;28;20171;-69
2022/12/11 09:11:09;;;;;;;21.13;12.77;;;-3.10;82.70;;;;;;5033297;28;20166;-69
2022/12/11 09:13:35;;;;;;;19.13;13.20;;;-3.00;85.50;;;;;;5033464;28;20436;-70
2022/12/11 09:16:09;;;;;;;14.77;9.85;;;-3.00;85.50;;;;;;5032732;28;20171;-70
2022/12/11 09:18:36;;;;;;;23.35;12.38;;;-3.00;85.50;;;;;;5033327;28;20182;-70
2022/12/11 09:21:07;;;;;;;20.90;12.20;;;-2.90;85.50;;;;;;5048563;28;20198;-69
2022/12/11 09:23:33;;;;;;;20.42;12.90;;;-2.90;85.50;;;;;;5033241;28;20680;-69
2022/12/11 09:26:02;;;;;;;22.63;11.93;;;-2.80;85.70;;;;;;5032613;28;20206;-70
2022/12/11 09:28:27;;;;;;;21.98;10.50;;;-2.80;85.60;;;;;;5033617;28;20171;-70
2022/12/11 09:30:53;;;;;;;18.57;10.47;;;-2.80;85.80;;;;;;5033255;28;20616;-70
2022/12/11 09:33:19;;;;;;;20.00;12.57;;;-2.80;88.10;;;;;;5033322;28;20251;-70
2022/12/11 09:35:45;;;;;;;25.50;12.23;;;-2.70;85.70;;;;;;5032964;28;20243;-69
2022/12/11 09:38:10;;;;;;;17.60;11.23;;;-2.60;85.80;;;;;;5034005;28;20206;-70
2022/12/11 09:40:42;;;;;;;23.73;12.73;;;-2.60;85.80;;;;;;5032201;28;20403;-70
2022/12/11 09:43:18;;;;;;;26.50;11.88;;;-2.60;85.80;;;;;;5033095;28;20278;-70
2022/12/11 09:45:44;;;;;;;20.05;10.95;;;-2.50;86.00;;;;;;5032335;28;20190;-69
2022/12/11 09:48:12;;;;;;;20.80;12.55;;;-2.40;86.10;;;;;;5031774;28;20255;-70
2022/12/11 09:50:38;;;;;;;19.48;11.02;;;-2.40;86.70;;;;;;5032151;28;20634;-69
2022/12/11 09:53:04;;;;;;;14.80;10.00;;;-2.40;90.00;;;;;;5032993;28;20163;-71
2022/12/11 09:55:59;;;;;;;15.97;10.90;;;-2.30;91.20;;;;;;5030780;28;20660;-69
2022/12/11 09:58:46;;;;;;;19.50;11.60;;;-2.20;91.80;;;;;;5029155;28;20662;-70
2022/12/11 10:01:21;;;;;;;19.40;11.18;;;-2.20;86.30;;;;;;5032908;28;20187;-71
2022/12/11 10:04:01;;;;;;;19.33;10.25;;;-2.20;86.50;;;;;;5034136;28;20219;-70
2022/12/11 10:06:46;;;;;;;17.67;11.40;;;-2.10;90.70;;;;;;5036074;28;20552;-68
2022/12/11 10:09:46;;;;;;;12.27;8.77;;;-2.00;92.50;;;;;;5036585;28;20179;-69
2022/12/11 10:12:40;;;;;;;12.48;8.85;;;-1.90;93.30;;;;;;5034481;28;20183;-70
2022/12/11 10:15:37;;;;;;;17.38;9.88;;;-1.90;86.30;;;;;;5035706;28;20282;-69
2022/12/11 10:18:09;;;;;;;14.35;9.88;;;-1.80;86.40;;;;;;5048228;28;20274;-69
2022/12/11 10:20:39;;;;;;;18.40;10.63;;;-1.80;86.40;;;;;;5056203;28;20174;-69
2022/12/11 10:23:19;;;;;;;22.42;10.30;;;-1.80;86.40;;;;;;5056269;28;20183;-69
2022/12/11 10:25:55;;;;;;;16.52;9.30;;;-1.80;86.50;;;;;;5054860;28;20234;-69
2022/12/11 10:28:21;;;;;;;18.92;10.15;;;-1.70;86.50;;;;;;5056184;28;20171;-70
2022/12/11 10:31:17;;;;;;;13.27;8.27;;;-1.70;86.50;;;;;;5056127;28;20178;-70
2022/12/11 10:34:00;;;;;;;16.10;10.60;;;-1.70;86.50;;;;;;5040618;28;20246;-68
2022/12/11 10:36:33;;;;;;;16.25;10.48;;;-1.60;86.60;;;;;;5035377;28;20238;-69
2022/12/11 10:38:59;;;;;;;14.80;9.88;;;-1.60;86.50;;;;;;5048743;28;20175;-70
2022/12/11 10:41:37;;;;;;;14.68;10.45;;;-1.50;76.20;;;;;;5055870;28;20167;-70
2022/12/11 10:44:18;;;;;;;15.07;9.63;;;-1.50;84.50;;;;;;5042393;28;20672;-68
2022/12/11 10:46:45;;;;;;;17.70;10.55;;;-1.40;81.10;;;;;;5035917;28;20221;-69
2022/12/11 10:49:26;;;;;;;17.27;10.90;;;-1.40;86.70;;;;;;5053184;28;20175;-69
2022/12/11 10:51:54;;;;;;;18.95;11.35;;;-1.40;86.80;;;;;;5055761;28;20242;-69
2022/12/11 10:54:37;;;;;;;16.73;10.90;;;-1.30;86.80;;;;;;5054641;28;20236;-69
2022/12/11 10:57:05;;;;;;;14.13;9.38;;;-1.20;86.80;;;;;;5055831;28;20158;-71
2022/12/11 10:59:39;;;;;;;14.52;10.65;;;-1.20;72.70;;;;;;5055377;28;20183;-71
2022/12/11 11:02:16;;;;;;;14.32;8.88;;;-1.20;63.60;;;;;;5055504;28;20194;-69
2022/12/11 11:04:43;;;;;;;14.65;9.25;;;-1.30;45.70;;;;;;5054382;28;20256;-68
2022/12/11 11:07:23;;;;;;;14.95;9.02;;;-1.30;34.20;;;;;;5055677;28;20225;-70
2022/12/11 11:09:53;;;;;;;14.10;9.55;;;-1.40;30.60;;;;;;5035566;28;20254;-70
2022/12/11 11:12:25;;;;;;;17.70;12.38;;;-1.40;28.00;;;;;;5035582;28;20171;-69
2022/12/11 11:15:13;;;;;;;16.35;11.00;;;-1.30;30.90;;;;;;5053580;28;20310;-69
2022/12/11 11:17:45;;;;;;;19.13;12.25;;;-1.30;25.90;;;;;;5054921;28;20163;-69
2022/12/11 11:20:23;;;;;;;14.30;10.85;;;-1.20;24.70;;;;;;5055359;28;20265;-70
2022/12/11 11:22:52;;;;;;;21.48;11.43;;;-1.20;27.50;;;;;;5050374;28;20226;-71
2022/12/11 11:25:23;;;;;;;19.55;10.90;;;-1.10;28.60;;;;;;5034357;28;20179;-69
2022/12/11 11:27:52;;;;;;;16.65;10.95;;;-1.00;35.60;;;;;;5039458;28;20196;-70
2022/12/11 11:30:29;;;;;;;17.77;10.88;;;-1.00;32.60;;;;;;5055085;28;20579;-69
2022/12/11 11:33:03;;;;;;;19.15;11.50;;;-1.00;29.50;;;;;;5054434;28;20178;-70
2022/12/11 11:35:30;;;;;;;15.27;10.40;;;-1.00;30.10;;;;;;5054206;28;20547;-70
2022/12/11 11:38:17;;;;;;;15.88;10.57;;;-0.90;30.10;;;;;;5054661;28;20181;-71
2022/12/11 11:40:50;;;;;;;15.88;11.75;;;-0.90;31.80;;;;;;5055290;28;20179;-69
2022/12/11 11:43:33;;;;;;;17.77;10.73;;;-0.80;31.60;;;;;;5054531;28;20198;-70
2022/12/11 11:46:07;;;;;;;14.25;9.63;;;-0.80;29.00;;;;;;5054065;28;20171;-69
2022/12/11 11:48:44;;;;;;;18.10;12.18;;;-0.80;25.90;;;;;;5049842;28;20172;-69
2022/12/11 11:51:20;;;;;;;15.20;10.30;;;-0.80;25.80;;;;;;5034812;28;20179;-70
2022/12/11 11:53:51;;;;;;;15.20;10.80;;;-0.80;23.50;;;;;;5048925;28;20280;-70
2022/12/11 11:56:24;;;;;;;19.55;11.10;;;-0.70;26.40;;;;;;5053594;28;20166;-70
2022/12/11 11:59:13;;;;;;;14.02;11.25;;;-0.70;33.10;;;;;;5054354;28;20211;-70
2022/12/11 12:01:42;;;;;;;17.85;11.77;;;-0.70;28.50;;;;;;5043742;28;20178;-69
2022/12/11 12:04:08;;;;;;;16.48;11.02;;;-0.70;22.90;;;;;;5053870;28;20195;-70
2022/12/11 12:06:59;;;;;;;17.40;10.90;;;-0.60;24.00;;;;;;5053791;28;20186;-70
2022/12/11 12:09:44;;;;;;;18.98;11.05;;;-0.60;21.30;;;;;;5054090;28;20523;-69
2022/12/11 12:12:16;;;;;;;15.30;9.85;;;-0.60;23.50;;;;;;5054377;28;20304;-71
2022/12/11 12:15:03;;;;;;;11.20;9.18;;;-0.60;24.40;;;;;;5052971;28;20214;-70
2022/12/11 12:17:37;;;;;;;17.17;9.95;;;-0.60;18.90;;;;;;5053943;28;20182;-69
2022/12/11 12:20:17;;;;;;;21.38;11.48;;;-0.60;17.70;;;;;;5054099;28;20178;-70
2022/12/11 12:22:49;;;;;;;18.20;10.38;;;-0.60;13.10;;;;;;5053710;28;20324;-71
2022/12/11 12:25:21;;;;;;;20.48;10.73;;;-0.60;11.20;;;;;;5053079;28;20182;-69
2022/12/11 12:28:02;;;;;;;19.73;11.63;;;-0.50;11.20;;;;;;5053664;28;20256;-68
2022/12/11 12:30:36;;;;;;;17.33;11.80;;;-0.50;11.80;;;;;;5052559;28;20824;-69
2022/12/11 12:33:39;;;;;;;18.90;11.18;;;-0.50;11.20;;;;;;5053075;28;20212;-70
2022/12/11 12:36:22;;;;;;;16.15;9.20;;;-0.50;11.60;;;;;;5052988;28;20167;-69
2022/12/11 12:39:07;;;;;;;15.82;11.80;;;-0.50;14.30;;;;;;5053425;28;20305;-70
2022/12/11 12:42:17;;;;;;;13.02;10.65;;;-0.40;9.50;;;;;;5053572;28;20206;-68
2022/12/11 12:44:56;;;;;;;18.20;9.95;;;-0.40;8.30;;;;;;4991181;28;20201;-70
2022/12/11 12:47:23;;;;;;;14.18;9.15;;;-0.50;7.90;;;;;;5046420;28;20241;-68
2022/12/11 12:49:52;;;;;;;22.25;10.10;;;-0.50;5.70;;;;;;5053741;28;20632;-70
2022/12/11 12:52:20;;;;;;;16.13;9.27;;;-0.50;2.50;;;;;;5053318;28;20262;-70
2022/12/11 12:57:36;;;;;;;12.40;8.93;;;-0.50;1.00;;;;;;5053699;28;20182;-70